sensor_id;sensor_type;location;lat;lon;timestamp;P1;durP1;ratioP1;P2;durP2;ratioP2
46036;SDS011;31769;49.304;8.428;2024-01-30T00:01:41;31.25;;;19.42;;
46036;SDS011;31769;49.304;8.428;2024-01-30T00:04:42;31.10;;;20.25;;
46036;SDS011;31769;49.304;8.428;2024-01-30T00:07:43;29.10;;;21.02;;
46036;SDS011;31769;49.304;8.428;2024-01-30T00:10:43;34.63;;;20.52;;
46036;SDS011;31769;49.304;8.428;2024-01-30T00:13:44;31.02;;;20.23;;
46036;SDS011;31769;49.304;8.428;2024-01-30T00:16:45;28.05;;;19.42;;
46036;SDS011;31769;49.304;8.428;2024-01-30T00:19:45;31.65;;;19.00;;
46036;SDS011;31769;49.304;8.428;2024-01-30T00:22:46;32.35;;;20.67;;
46036;SDS011;31769;49.304;8.428;2024-01-30T00:25:47;33.40;;;22.42;;
46036;SDS011;31769;49.304;8.428;2024-01-30T00:28:47;32.63;;;21.90;;
46036;SDS011;31769;49.304;8.428;2024-01-30T00:31:48;29.92;;;21.27;;
46036;SDS011;31769;49.304;8.428;2024-01-30T00:34:49;28.23;;;20.20;;
46036;SDS011;31769;49.304;8.428;2024-01-30T00:37:49;30.02;;;20.52;;
46036;SDS011;31769;49.304;8.428;2024-01-30T00:40:50;26.45;;;19.33;;
46036;SDS011;31769;49.304;8.428;2024-01-30T00:43:51;33.58;;;19.67;;
46036;SDS011;31769;49.304;8.428;2024-01-30T00:46:51;29.60;;;19.73;;
46036;SDS011;31769;49.304;8.428;2024-01-30T00:49:52;29.38;;;20.40;;
46036;SDS011;31769;49.304;8.428;2024-01-30T00:52:53;31.15;;;21.45;;
46036;SDS011;31769;49.304;8.428;2024-01-30T00:55:53;33.10;;;20.90;;
46036;SDS011;31769;49.304;8.428;2024-01-30T00:58:54;35.47;;;20.77;;
46036;SDS011;31769;49.304;8.428;2024-01-30T01:01:55;24.63;;;18.13;;
46036;SDS011;31769;49.304;8.428;2024-01-30T01:04:56;26.92;;;17.80;;
46036;SDS011;31769;49.304;8.428;2024-01-30T01:07:57;26.55;;;18.13;;
46036;SDS011;31769;49.304;8.428;2024-01-30T01:10:58;28.27;;;18.23;;
46036;SDS011;31769;49.304;8.428;2024-01-30T01:13:58;28.38;;;18.40;;
46036;SDS011;31769;49.304;8.428;2024-01-30T01:16:59;29.90;;;18.75;;
46036;SDS011;31769;49.304;8.428;2024-01-30T01:19:59;32.65;;;20.10;;
46036;SDS011;31769;49.304;8.428;2024-01-30T01:23:00;31.77;;;19.92;;
46036;SDS011;31769;49.304;8.428;2024-01-30T01:26:01;29.08;;;18.65;;
46036;SDS011;31769;49.304;8.428;2024-01-30T01:29:01;31.88;;;20.05;;
46036;SDS011;31769;49.304;8.428;2024-01-30T01:32:09;27.58;;;20.10;;
46036;SDS011;31769;49.304;8.428;2024-01-30T01:35:10;30.92;;;19.55;;
46036;SDS011;31769;49.304;8.428;2024-01-30T01:38:11;26.50;;;19.02;;
46036;SDS011;31769;49.304;8.428;2024-01-30T01:41:11;28.00;;;19.02;;
46036;SDS011;31769;49.304;8.428;2024-01-30T01:44:12;25.42;;;19.23;;
46036;SDS011;31769;49.304;8.428;2024-01-30T01:47:13;26.55;;;18.92;;
46036;SDS011;31769;49.304;8.428;2024-01-30T01:50:15;28.27;;;18.95;;
46036;SDS011;31769;49.304;8.428;2024-01-30T01:53:19;28.95;;;18.77;;
46036;SDS011;31769;49.304;8.428;2024-01-30T01:56:21;26.50;;;18.02;;
46036;SDS011;31769;49.304;8.428;2024-01-30T01:59:23;28.58;;;17.88;;
46036;SDS011;31769;49.304;8.428;2024-01-30T02:02:24;27.65;;;18.52;;
46036;SDS011;31769;49.304;8.428;2024-01-30T02:05:30;27.73;;;17.90;;
46036;SDS011;31769;49.304;8.428;2024-01-30T02:08:31;27.02;;;18.90;;
46036;SDS011;31769;49.304;8.428;2024-01-30T02:11:32;27.67;;;17.98;;
46036;SDS011;31769;49.304;8.428;2024-01-30T02:14:33;24.15;;;17.98;;
46036;SDS011;31769;49.304;8.428;2024-01-30T02:17:45;26.45;;;17.85;;
46036;SDS011;31769;49.304;8.428;2024-01-30T02:20:45;22.27;;;17.33;;
46036;SDS011;31769;49.304;8.428;2024-01-30T02:23:46;27.25;;;17.40;;
46036;SDS011;31769;49.304;8.428;2024-01-30T02:26:48;27.38;;;17.88;;
46036;SDS011;31769;49.304;8.428;2024-01-30T02:29:49;25.05;;;17.70;;
46036;SDS011;31769;49.304;8.428;2024-01-30T02:32:49;29.75;;;17.77;;
46036;SDS011;31769;49.304;8.428;2024-01-30T02:35:50;26.08;;;17.58;;
46036;SDS011;31769;49.304;8.428;2024-01-30T02:38:50;25.40;;;17.25;;
46036;SDS011;31769;49.304;8.428;2024-01-30T02:41:51;27.00;;;16.15;;
46036;SDS011;31769;49.304;8.428;2024-01-30T02:44:52;24.77;;;17.55;;
46036;SDS011;31769;49.304;8.428;2024-01-30T02:47:52;30.02;;;17.05;;
46036;SDS011;31769;49.304;8.428;2024-01-30T02:50:53;24.98;;;17.08;;
46036;SDS011;31769;49.304;8.428;2024-01-30T02:53:54;23.63;;;16.58;;
46036;SDS011;31769;49.304;8.428;2024-01-30T02:56:54;24.15;;;18.05;;
46036;SDS011;31769;49.304;8.428;2024-01-30T02:59:55;24.23;;;16.02;;
46036;SDS011;31769;49.304;8.428;2024-01-30T03:02:56;23.98;;;16.80;;
46036;SDS011;31769;49.304;8.428;2024-01-30T03:05:56;26.48;;;16.52;;
46036;SDS011;31769;49.304;8.428;2024-01-30T03:08:57;22.70;;;16.55;;
46036;SDS011;31769;49.304;8.428;2024-01-30T03:11:58;22.38;;;15.95;;
46036;SDS011;31769;49.304;8.428;2024-01-30T03:14:58;25.88;;;17.02;;
46036;SDS011;31769;49.304;8.428;2024-01-30T03:17:59;24.13;;;16.42;;
46036;SDS011;31769;49.304;8.428;2024-01-30T03:21:00;23.40;;;16.08;;
46036;SDS011;31769;49.304;8.428;2024-01-30T03:24:01;22.70;;;16.98;;
46036;SDS011;31769;49.304;8.428;2024-01-30T03:27:01;22.70;;;16.80;;
46036;SDS011;31769;49.304;8.428;2024-01-30T03:30:02;22.77;;;16.80;;
46036;SDS011;31769;49.304;8.428;2024-01-30T03:33:03;25.85;;;17.75;;
46036;SDS011;31769;49.304;8.428;2024-01-30T03:36:04;23.45;;;17.05;;
46036;SDS011;31769;49.304;8.428;2024-01-30T03:39:05;24.02;;;16.23;;
46036;SDS011;31769;49.304;8.428;2024-01-30T03:42:06;25.05;;;17.60;;
46036;SDS011;31769;49.304;8.428;2024-01-30T03:45:07;24.60;;;17.95;;
46036;SDS011;31769;49.304;8.428;2024-01-30T03:48:08;22.00;;;16.38;;
46036;SDS011;31769;49.304;8.428;2024-01-30T03:51:09;24.50;;;17.08;;
46036;SDS011;31769;49.304;8.428;2024-01-30T03:54:14;28.27;;;16.92;;
46036;SDS011;31769;49.304;8.428;2024-01-30T03:57:15;26.10;;;17.45;;
46036;SDS011;31769;49.304;8.428;2024-01-30T04:00:16;23.00;;;16.60;;
46036;SDS011;31769;49.304;8.428;2024-01-30T04:03:17;20.58;;;15.30;;
46036;SDS011;31769;49.304;8.428;2024-01-30T04:06:17;25.33;;;16.80;;
46036;SDS011;31769;49.304;8.428;2024-01-30T04:09:18;27.67;;;17.10;;
46036;SDS011;31769;49.304;8.428;2024-01-30T04:12:19;22.38;;;15.75;;
46036;SDS011;31769;49.304;8.428;2024-01-30T04:15:19;23.63;;;16.10;;
46036;SDS011;31769;49.304;8.428;2024-01-30T04:18:20;24.00;;;16.40;;
46036;SDS011;31769;49.304;8.428;2024-01-30T04:21:21;24.85;;;17.70;;
46036;SDS011;31769;49.304;8.428;2024-01-30T04:24:22;25.73;;;17.08;;
46036;SDS011;31769;49.304;8.428;2024-01-30T04:27:23;25.42;;;16.73;;
46036;SDS011;31769;49.304;8.428;2024-01-30T04:30:23;26.10;;;16.75;;
46036;SDS011;31769;49.304;8.428;2024-01-30T04:33:24;23.35;;;16.52;;
46036;SDS011;31769;49.304;8.428;2024-01-30T04:36:25;28.00;;;17.67;;
46036;SDS011;31769;49.304;8.428;2024-01-30T04:39:25;25.95;;;18.25;;
46036;SDS011;31769;49.304;8.428;2024-01-30T04:42:26;29.35;;;17.33;;
46036;SDS011;31769;49.304;8.428;2024-01-30T04:45:27;26.17;;;17.48;;
46036;SDS011;31769;49.304;8.428;2024-01-30T04:48:27;24.55;;;17.65;;
46036;SDS011;31769;49.304;8.428;2024-01-30T04:51:28;30.38;;;17.23;;
46036;SDS011;31769;49.304;8.428;2024-01-30T04:54:30;24.50;;;16.88;;
46036;SDS011;31769;49.304;8.428;2024-01-30T04:57:30;27.85;;;17.48;;
46036;SDS011;31769;49.304;8.428;2024-01-30T05:00:33;23.95;;;17.27;;
46036;SDS011;31769;49.304;8.428;2024-01-30T05:03:34;26.52;;;17.17;;
46036;SDS011;31769;49.304;8.428;2024-01-30T05:06:35;24.92;;;18.13;;
46036;SDS011;31769;49.304;8.428;2024-01-30T05:09:35;24.48;;;17.75;;
46036;SDS011;31769;49.304;8.428;2024-01-30T05:12:36;24.83;;;17.67;;
46036;SDS011;31769;49.304;8.428;2024-01-30T05:15:38;27.33;;;18.52;;
46036;SDS011;31769;49.304;8.428;2024-01-30T05:18:39;26.33;;;17.33;;
46036;SDS011;31769;49.304;8.428;2024-01-30T05:21:40;23.50;;;16.67;;
46036;SDS011;31769;49.304;8.428;2024-01-30T05:24:41;23.58;;;15.73;;
46036;SDS011;31769;49.304;8.428;2024-01-30T05:27:42;21.30;;;15.30;;
46036;SDS011;31769;49.304;8.428;2024-01-30T05:30:43;28.05;;;17.77;;
46036;SDS011;31769;49.304;8.428;2024-01-30T05:33:44;24.30;;;17.17;;
46036;SDS011;31769;49.304;8.428;2024-01-30T05:36:44;27.30;;;17.95;;
46036;SDS011;31769;49.304;8.428;2024-01-30T05:39:45;26.95;;;16.55;;
46036;SDS011;31769;49.304;8.428;2024-01-30T05:42:46;25.27;;;16.05;;
46036;SDS011;31769;49.304;8.428;2024-01-30T05:45:46;22.77;;;15.52;;
46036;SDS011;31769;49.304;8.428;2024-01-30T05:48:47;23.63;;;15.90;;
46036;SDS011;31769;49.304;8.428;2024-01-30T05:51:48;24.17;;;15.57;;
46036;SDS011;31769;49.304;8.428;2024-01-30T05:54:48;21.42;;;15.43;;
46036;SDS011;31769;49.304;8.428;2024-01-30T05:57:49;24.48;;;15.07;;
46036;SDS011;31769;49.304;8.428;2024-01-30T06:00:52;27.52;;;17.92;;
46036;SDS011;31769;49.304;8.428;2024-01-30T06:03:53;22.27;;;16.27;;
46036;SDS011;31769;49.304;8.428;2024-01-30T06:06:54;23.40;;;16.45;;
46036;SDS011;31769;49.304;8.428;2024-01-30T06:09:55;24.05;;;15.63;;
46036;SDS011;31769;49.304;8.428;2024-01-30T06:12:56;22.80;;;15.35;;
46036;SDS011;31769;49.304;8.428;2024-01-30T06:15:57;21.52;;;15.18;;
46036;SDS011;31769;49.304;8.428;2024-01-30T06:18:58;22.33;;;14.75;;
46036;SDS011;31769;49.304;8.428;2024-01-30T06:22:00;22.33;;;14.68;;
46036;SDS011;31769;49.304;8.428;2024-01-30T06:25:04;24.48;;;16.23;;
46036;SDS011;31769;49.304;8.428;2024-01-30T06:28:05;25.75;;;14.75;;
46036;SDS011;31769;49.304;8.428;2024-01-30T06:31:05;20.05;;;15.00;;
46036;SDS011;31769;49.304;8.428;2024-01-30T06:34:06;23.45;;;15.60;;
46036;SDS011;31769;49.304;8.428;2024-01-30T06:37:07;22.02;;;14.75;;
46036;SDS011;31769;49.304;8.428;2024-01-30T06:40:08;22.95;;;15.02;;
46036;SDS011;31769;49.304;8.428;2024-01-30T06:43:09;18.58;;;13.60;;
46036;SDS011;31769;49.304;8.428;2024-01-30T06:46:10;21.55;;;14.32;;
46036;SDS011;31769;49.304;8.428;2024-01-30T06:49:10;23.92;;;14.45;;
46036;SDS011;31769;49.304;8.428;2024-01-30T06:52:11;23.35;;;14.95;;
46036;SDS011;31769;49.304;8.428;2024-01-30T06:55:11;24.35;;;15.32;;
46036;SDS011;31769;49.304;8.428;2024-01-30T06:58:12;25.17;;;14.98;;
46036;SDS011;31769;49.304;8.428;2024-01-30T07:01:13;27.35;;;16.08;;
46036;SDS011;31769;49.304;8.428;2024-01-30T07:04:14;26.02;;;16.13;;
46036;SDS011;31769;49.304;8.428;2024-01-30T07:07:14;27.40;;;16.70;;
46036;SDS011;31769;49.304;8.428;2024-01-30T07:10:15;27.80;;;17.20;;
46036;SDS011;31769;49.304;8.428;2024-01-30T07:13:16;28.60;;;18.65;;
46036;SDS011;31769;49.304;8.428;2024-01-30T07:16:16;26.52;;;18.00;;
46036;SDS011;31769;49.304;8.428;2024-01-30T07:19:17;29.50;;;17.38;;
46036;SDS011;31769;49.304;8.428;2024-01-30T07:22:18;24.88;;;17.02;;
46036;SDS011;31769;49.304;8.428;2024-01-30T07:25:18;25.90;;;17.20;;
46036;SDS011;31769;49.304;8.428;2024-01-30T07:28:19;27.33;;;17.30;;
46036;SDS011;31769;49.304;8.428;2024-01-30T07:31:20;27.85;;;17.63;;
46036;SDS011;31769;49.304;8.428;2024-01-30T07:34:23;29.15;;;18.85;;
46036;SDS011;31769;49.304;8.428;2024-01-30T07:37:23;28.40;;;18.83;;
46036;SDS011;31769;49.304;8.428;2024-01-30T07:40:24;25.48;;;17.65;;
46036;SDS011;31769;49.304;8.428;2024-01-30T07:43:25;30.30;;;18.75;;
46036;SDS011;31769;49.304;8.428;2024-01-30T07:46:25;27.75;;;18.05;;
46036;SDS011;31769;49.304;8.428;2024-01-30T07:49:26;30.85;;;18.35;;
46036;SDS011;31769;49.304;8.428;2024-01-30T07:52:27;25.92;;;17.30;;
46036;SDS011;31769;49.304;8.428;2024-01-30T07:55:28;26.48;;;17.75;;
46036;SDS011;31769;49.304;8.428;2024-01-30T08:05:48;26.05;;;16.85;;
46036;SDS011;31769;49.304;8.428;2024-01-30T08:08:48;27.70;;;16.70;;
46036;SDS011;31769;49.304;8.428;2024-01-30T08:11:50;26.40;;;17.25;;
46036;SDS011;31769;49.304;8.428;2024-01-30T08:14:51;32.67;;;18.60;;
46036;SDS011;31769;49.304;8.428;2024-01-30T08:17:51;26.98;;;17.88;;
46036;SDS011;31769;49.304;8.428;2024-01-30T08:20:57;26.33;;;17.10;;
46036;SDS011;31769;49.304;8.428;2024-01-30T08:23:58;25.17;;;16.38;;
46036;SDS011;31769;49.304;8.428;2024-01-30T08:27:00;22.60;;;16.23;;
46036;SDS011;31769;49.304;8.428;2024-01-30T08:30:02;24.85;;;17.27;;
46036;SDS011;31769;49.304;8.428;2024-01-30T08:33:03;25.45;;;17.17;;
46036;SDS011;31769;49.304;8.428;2024-01-30T08:36:04;26.27;;;17.42;;
46036;SDS011;31769;49.304;8.428;2024-01-30T08:39:05;25.58;;;17.25;;
46036;SDS011;31769;49.304;8.428;2024-01-30T08:42:06;25.40;;;17.33;;
46036;SDS011;31769;49.304;8.428;2024-01-30T08:45:08;26.30;;;17.25;;
46036;SDS011;31769;49.304;8.428;2024-01-30T08:48:09;25.45;;;16.98;;
46036;SDS011;31769;49.304;8.428;2024-01-30T08:51:10;26.92;;;18.10;;
46036;SDS011;31769;49.304;8.428;2024-01-30T08:54:11;25.77;;;17.60;;
46036;SDS011;31769;49.304;8.428;2024-01-30T08:57:12;26.17;;;17.70;;
46036;SDS011;31769;49.304;8.428;2024-01-30T09:00:13;25.85;;;17.35;;
46036;SDS011;31769;49.304;8.428;2024-01-30T09:03:17;32.53;;;16.98;;
46036;SDS011;31769;49.304;8.428;2024-01-30T09:06:20;27.50;;;18.40;;
46036;SDS011;31769;49.304;8.428;2024-01-30T09:09:20;27.65;;;17.75;;
46036;SDS011;31769;49.304;8.428;2024-01-30T09:12:21;23.75;;;16.85;;
46036;SDS011;31769;49.304;8.428;2024-01-30T09:15:22;22.48;;;16.98;;
46036;SDS011;31769;49.304;8.428;2024-01-30T09:18:23;26.90;;;18.58;;
46036;SDS011;31769;49.304;8.428;2024-01-30T09:21:23;25.10;;;17.20;;
46036;SDS011;31769;49.304;8.428;2024-01-30T09:24:25;24.80;;;17.20;;
46036;SDS011;31769;49.304;8.428;2024-01-30T09:27:26;23.35;;;17.05;;
46036;SDS011;31769;49.304;8.428;2024-01-30T09:30:27;21.55;;;17.00;;
46036;SDS011;31769;49.304;8.428;2024-01-30T09:33:28;23.50;;;17.00;;
46036;SDS011;31769;49.304;8.428;2024-01-30T09:36:28;26.80;;;17.30;;
46036;SDS011;31769;49.304;8.428;2024-01-30T09:39:29;23.90;;;16.38;;
46036;SDS011;31769;49.304;8.428;2024-01-30T09:42:34;24.48;;;17.73;;
46036;SDS011;31769;49.304;8.428;2024-01-30T09:45:36;22.20;;;16.98;;
46036;SDS011;31769;49.304;8.428;2024-01-30T09:48:37;21.88;;;17.13;;
46036;SDS011;31769;49.304;8.428;2024-01-30T09:51:38;22.23;;;17.13;;
46036;SDS011;31769;49.304;8.428;2024-01-30T09:54:39;25.65;;;16.58;;
46036;SDS011;31769;49.304;8.428;2024-01-30T09:57:42;22.83;;;17.38;;
46036;SDS011;31769;49.304;8.428;2024-01-30T10:00:43;25.63;;;16.17;;
46036;SDS011;31769;49.304;8.428;2024-01-30T10:03:44;21.65;;;16.75;;
46036;SDS011;31769;49.304;8.428;2024-01-30T10:06:45;22.17;;;18.13;;
46036;SDS011;31769;49.304;8.428;2024-01-30T10:09:47;23.25;;;17.58;;
46036;SDS011;31769;49.304;8.428;2024-01-30T10:12:49;19.67;;;16.05;;
46036;SDS011;31769;49.304;8.428;2024-01-30T10:15:50;23.05;;;17.83;;
46036;SDS011;31769;49.304;8.428;2024-01-30T10:18:51;21.05;;;17.65;;
46036;SDS011;31769;49.304;8.428;2024-01-30T10:21:52;25.00;;;17.95;;
46036;SDS011;31769;49.304;8.428;2024-01-30T10:24:53;21.67;;;17.73;;
46036;SDS011;31769;49.304;8.428;2024-01-30T10:27:54;21.98;;;18.15;;
46036;SDS011;31769;49.304;8.428;2024-01-30T10:30:58;23.33;;;18.10;;
46036;SDS011;31769;49.304;8.428;2024-01-30T10:33:59;21.83;;;18.35;;
46036;SDS011;31769;49.304;8.428;2024-01-30T10:40:12;22.60;;;18.98;;
46036;SDS011;31769;49.304;8.428;2024-01-30T10:43:14;20.33;;;17.08;;
46036;SDS011;31769;49.304;8.428;2024-01-30T10:46:18;24.13;;;17.60;;
46036;SDS011;31769;49.304;8.428;2024-01-30T10:49:20;22.25;;;17.55;;
46036;SDS011;31769;49.304;8.428;2024-01-30T10:52:22;27.15;;;18.88;;
46036;SDS011;31769;49.304;8.428;2024-01-30T10:55:25;21.60;;;17.90;;
46036;SDS011;31769;49.304;8.428;2024-01-30T10:58:28;22.45;;;17.80;;
46036;SDS011;31769;49.304;8.428;2024-01-30T11:01:29;23.58;;;17.13;;
46036;SDS011;31769;49.304;8.428;2024-01-30T11:04:36;22.80;;;17.23;;
46036;SDS011;31769;49.304;8.428;2024-01-30T11:07:38;24.92;;;17.73;;
46036;SDS011;31769;49.304;8.428;2024-01-30T11:10:49;22.63;;;17.55;;
46036;SDS011;31769;49.304;8.428;2024-01-30T11:16:50;24.20;;;18.38;;
46036;SDS011;31769;49.304;8.428;2024-01-30T11:19:51;24.42;;;17.80;;
46036;SDS011;31769;49.304;8.428;2024-01-30T11:22:52;21.15;;;16.90;;
46036;SDS011;31769;49.304;8.428;2024-01-30T11:25:55;20.65;;;15.88;;
46036;SDS011;31769;49.304;8.428;2024-01-30T11:28:57;18.65;;;15.85;;
46036;SDS011;31769;49.304;8.428;2024-01-30T11:31:58;20.30;;;15.27;;
46036;SDS011;31769;49.304;8.428;2024-01-30T11:34:59;18.83;;;15.45;;
46036;SDS011;31769;49.304;8.428;2024-01-30T11:38:00;16.85;;;14.90;;
46036;SDS011;31769;49.304;8.428;2024-01-30T11:41:01;17.75;;;15.07;;
46036;SDS011;31769;49.304;8.428;2024-01-30T11:44:03;20.00;;;14.45;;
46036;SDS011;31769;49.304;8.428;2024-01-30T11:47:04;19.42;;;14.55;;
46036;SDS011;31769;49.304;8.428;2024-01-30T11:50:05;19.02;;;14.82;;
46036;SDS011;31769;49.304;8.428;2024-01-30T11:53:06;17.48;;;14.10;;
46036;SDS011;31769;49.304;8.428;2024-01-30T11:56:07;18.13;;;14.65;;
46036;SDS011;31769;49.304;8.428;2024-01-30T11:59:08;16.98;;;14.48;;
46036;SDS011;31769;49.304;8.428;2024-01-30T12:02:09;21.08;;;14.18;;
46036;SDS011;31769;49.304;8.428;2024-01-30T12:05:16;22.92;;;14.23;;
46036;SDS011;31769;49.304;8.428;2024-01-30T12:08:16;18.08;;;14.32;;
46036;SDS011;31769;49.304;8.428;2024-01-30T12:11:17;19.35;;;14.23;;
46036;SDS011;31769;49.304;8.428;2024-01-30T12:14:18;15.75;;;12.82;;
46036;SDS011;31769;49.304;8.428;2024-01-30T12:17:24;14.95;;;12.00;;
46036;SDS011;31769;49.304;8.428;2024-01-30T12:20:31;15.38;;;12.27;;
46036;SDS011;31769;49.304;8.428;2024-01-30T12:23:32;15.45;;;12.13;;
46036;SDS011;31769;49.304;8.428;2024-01-30T12:26:33;19.40;;;12.93;;
46036;SDS011;31769;49.304;8.428;2024-01-30T12:29:34;19.95;;;12.50;;
46036;SDS011;31769;49.304;8.428;2024-01-30T12:32:41;16.13;;;12.25;;
46036;SDS011;31769;49.304;8.428;2024-01-30T12:35:49;14.00;;;11.85;;
46036;SDS011;31769;49.304;8.428;2024-01-30T12:38:56;18.55;;;12.30;;
46036;SDS011;31769;49.304;8.428;2024-01-30T12:41:57;15.23;;;11.75;;
46036;SDS011;31769;49.304;8.428;2024-01-30T12:44:58;15.32;;;12.23;;
46036;SDS011;31769;49.304;8.428;2024-01-30T12:47:59;17.10;;;11.95;;
46036;SDS011;31769;49.304;8.428;2024-01-30T12:51:00;14.02;;;11.18;;
46036;SDS011;31769;49.304;8.428;2024-01-30T12:54:04;12.98;;;10.05;;
46036;SDS011;31769;49.304;8.428;2024-01-30T12:57:05;13.57;;;10.55;;
46036;SDS011;31769;49.304;8.428;2024-01-30T13:00:06;14.00;;;10.20;;
46036;SDS011;31769;49.304;8.428;2024-01-30T13:03:10;12.80;;;9.43;;
46036;SDS011;31769;49.304;8.428;2024-01-30T13:06:11;12.93;;;10.38;;
46036;SDS011;31769;49.304;8.428;2024-01-30T13:09:12;14.10;;;10.38;;
46036;SDS011;31769;49.304;8.428;2024-01-30T13:12:13;12.52;;;9.82;;
46036;SDS011;31769;49.304;8.428;2024-01-30T13:15:13;14.90;;;9.88;;
46036;SDS011;31769;49.304;8.428;2024-01-30T13:18:15;13.18;;;10.32;;
46036;SDS011;31769;49.304;8.428;2024-01-30T13:21:15;12.20;;;10.50;;
46036;SDS011;31769;49.304;8.428;2024-01-30T13:24:16;12.85;;;10.02;;
46036;SDS011;31769;49.304;8.428;2024-01-30T13:27:17;13.93;;;9.57;;
46036;SDS011;31769;49.304;8.428;2024-01-30T13:30:17;12.98;;;10.00;;
46036;SDS011;31769;49.304;8.428;2024-01-30T13:33:18;10.55;;;8.65;;
46036;SDS011;31769;49.304;8.428;2024-01-30T13:36:19;11.63;;;9.18;;
46036;SDS011;31769;49.304;8.428;2024-01-30T13:39:20;12.13;;;8.73;;
46036;SDS011;31769;49.304;8.428;2024-01-30T13:42:20;9.13;;;7.47;;
46036;SDS011;31769;49.304;8.428;2024-01-30T13:45:21;9.07;;;6.88;;
46036;SDS011;31769;49.304;8.428;2024-01-30T13:48:22;11.07;;;7.35;;
46036;SDS011;31769;49.304;8.428;2024-01-30T13:51:23;9.98;;;6.75;;
46036;SDS011;31769;49.304;8.428;2024-01-30T13:54:23;10.13;;;6.68;;
46036;SDS011;31769;49.304;8.428;2024-01-30T13:57:24;10.50;;;7.32;;
46036;SDS011;31769;49.304;8.428;2024-01-30T14:00:24;10.95;;;6.68;;
46036;SDS011;31769;49.304;8.428;2024-01-30T14:03:26;9.25;;;6.85;;
46036;SDS011;31769;49.304;8.428;2024-01-30T14:06:26;11.20;;;7.10;;
46036;SDS011;31769;49.304;8.428;2024-01-30T14:09:27;9.70;;;7.10;;
46036;SDS011;31769;49.304;8.428;2024-01-30T14:12:28;16.67;;;7.32;;
46036;SDS011;31769;49.304;8.428;2024-01-30T14:15:30;9.15;;;7.30;;
46036;SDS011;31769;49.304;8.428;2024-01-30T14:18:31;12.25;;;7.03;;
46036;SDS011;31769;49.304;8.428;2024-01-30T14:21:31;9.70;;;7.35;;
46036;SDS011;31769;49.304;8.428;2024-01-30T14:24:32;12.60;;;7.25;;
46036;SDS011;31769;49.304;8.428;2024-01-30T14:27:34;9.00;;;6.95;;
46036;SDS011;31769;49.304;8.428;2024-01-30T14:30:35;12.80;;;8.23;;
46036;SDS011;31769;49.304;8.428;2024-01-30T14:33:36;12.15;;;9.73;;
46036;SDS011;31769;49.304;8.428;2024-01-30T14:36:37;32.85;;;18.15;;
46036;SDS011;31769;49.304;8.428;2024-01-30T14:39:38;19.15;;;13.55;;
46036;SDS011;31769;49.304;8.428;2024-01-30T14:42:40;15.35;;;10.65;;
46036;SDS011;31769;49.304;8.428;2024-01-30T14:45:41;12.25;;;9.02;;
46036;SDS011;31769;49.304;8.428;2024-01-30T14:48:42;8.27;;;6.88;;
46036;SDS011;31769;49.304;8.428;2024-01-30T14:51:43;11.93;;;8.05;;
46036;SDS011;31769;49.304;8.428;2024-01-30T14:54:44;11.57;;;7.43;;
46036;SDS011;31769;49.304;8.428;2024-01-30T14:57:44;13.02;;;8.52;;
46036;SDS011;31769;49.304;8.428;2024-01-30T15:00:46;10.27;;;7.70;;
46036;SDS011;31769;49.304;8.428;2024-01-30T15:03:46;11.98;;;7.95;;
46036;SDS011;31769;49.304;8.428;2024-01-30T15:06:47;10.85;;;8.13;;
46036;SDS011;31769;49.304;8.428;2024-01-30T15:09:48;10.13;;;8.07;;
46036;SDS011;31769;49.304;8.428;2024-01-30T15:12:49;12.10;;;8.30;;
46036;SDS011;31769;49.304;8.428;2024-01-30T15:15:50;12.10;;;8.38;;
46036;SDS011;31769;49.304;8.428;2024-01-30T15:18:51;10.48;;;8.32;;
46036;SDS011;31769;49.304;8.428;2024-01-30T15:21:51;12.30;;;8.75;;
46036;SDS011;31769;49.304;8.428;2024-01-30T15:24:52;11.60;;;8.15;;
46036;SDS011;31769;49.304;8.428;2024-01-30T15:27:53;11.65;;;8.45;;
46036;SDS011;31769;49.304;8.428;2024-01-30T15:30:53;17.20;;;8.70;;
46036;SDS011;31769;49.304;8.428;2024-01-30T15:33:54;14.95;;;8.85;;
46036;SDS011;31769;49.304;8.428;2024-01-30T15:36:57;11.80;;;8.30;;
46036;SDS011;31769;49.304;8.428;2024-01-30T15:39:58;12.45;;;8.38;;
46036;SDS011;31769;49.304;8.428;2024-01-30T15:42:59;10.65;;;8.35;;
46036;SDS011;31769;49.304;8.428;2024-01-30T15:46:00;12.35;;;8.25;;
46036;SDS011;31769;49.304;8.428;2024-01-30T15:49:03;12.45;;;8.23;;
46036;SDS011;31769;49.304;8.428;2024-01-30T15:52:04;12.43;;;8.32;;
46036;SDS011;31769;49.304;8.428;2024-01-30T15:55:05;13.77;;;8.50;;
46036;SDS011;31769;49.304;8.428;2024-01-30T15:58:06;12.32;;;8.00;;
46036;SDS011;31769;49.304;8.428;2024-01-30T16:01:07;11.95;;;8.40;;
46036;SDS011;31769;49.304;8.428;2024-01-30T16:04:08;13.07;;;8.52;;
46036;SDS011;31769;49.304;8.428;2024-01-30T16:07:08;15.30;;;8.13;;
46036;SDS011;31769;49.304;8.428;2024-01-30T16:10:10;13.25;;;8.15;;
46036;SDS011;31769;49.304;8.428;2024-01-30T16:13:16;10.93;;;8.10;;
46036;SDS011;31769;49.304;8.428;2024-01-30T16:16:17;14.55;;;7.80;;
46036;SDS011;31769;49.304;8.428;2024-01-30T16:19:18;11.00;;;7.80;;
46036;SDS011;31769;49.304;8.428;2024-01-30T16:22:19;11.68;;;7.78;;
46036;SDS011;31769;49.304;8.428;2024-01-30T16:25:20;9.18;;;7.45;;
46036;SDS011;31769;49.304;8.428;2024-01-30T16:28:24;19.73;;;13.88;;
46036;SDS011;31769;49.304;8.428;2024-01-30T16:31:28;15.35;;;11.68;;
46036;SDS011;31769;49.304;8.428;2024-01-30T16:34:29;14.38;;;11.57;;
46036;SDS011;31769;49.304;8.428;2024-01-30T16:37:30;24.25;;;16.17;;
46036;SDS011;31769;49.304;8.428;2024-01-30T16:40:31;39.63;;;27.65;;
46036;SDS011;31769;49.304;8.428;2024-01-30T16:43:31;16.52;;;12.40;;
46036;SDS011;31769;49.304;8.428;2024-01-30T16:46:32;13.52;;;10.05;;
46036;SDS011;31769;49.304;8.428;2024-01-30T16:49:33;15.98;;;8.48;;
46036;SDS011;31769;49.304;8.428;2024-01-30T16:52:34;10.38;;;8.50;;
46036;SDS011;31769;49.304;8.428;2024-01-30T16:55:34;13.45;;;9.38;;
46036;SDS011;31769;49.304;8.428;2024-01-30T16:58:35;13.38;;;9.02;;
46036;SDS011;31769;49.304;8.428;2024-01-30T17:01:36;11.75;;;8.55;;
46036;SDS011;31769;49.304;8.428;2024-01-30T17:04:37;11.15;;;8.52;;
46036;SDS011;31769;49.304;8.428;2024-01-30T17:07:37;11.80;;;8.88;;
46036;SDS011;31769;49.304;8.428;2024-01-30T17:10:38;13.68;;;9.00;;
46036;SDS011;31769;49.304;8.428;2024-01-30T17:13:39;13.50;;;9.45;;
46036;SDS011;31769;49.304;8.428;2024-01-30T17:16:40;14.25;;;10.20;;
46036;SDS011;31769;49.304;8.428;2024-01-30T17:19:40;14.25;;;10.63;;
46036;SDS011;31769;49.304;8.428;2024-01-30T17:22:41;19.05;;;11.60;;
46036;SDS011;31769;49.304;8.428;2024-01-30T17:25:42;17.65;;;12.00;;
46036;SDS011;31769;49.304;8.428;2024-01-30T17:28:42;16.25;;;12.70;;
46036;SDS011;31769;49.304;8.428;2024-01-30T17:31:43;18.17;;;12.00;;
46036;SDS011;31769;49.304;8.428;2024-01-30T17:34:47;17.40;;;12.07;;
46036;SDS011;31769;49.304;8.428;2024-01-30T17:37:48;17.67;;;12.48;;
46036;SDS011;31769;49.304;8.428;2024-01-30T17:40:49;20.20;;;13.27;;
46036;SDS011;31769;49.304;8.428;2024-01-30T17:43:51;18.67;;;13.70;;
46036;SDS011;31769;49.304;8.428;2024-01-30T17:46:51;18.05;;;12.27;;
46036;SDS011;31769;49.304;8.428;2024-01-30T17:49:52;21.27;;;12.73;;
46036;SDS011;31769;49.304;8.428;2024-01-30T17:52:53;20.13;;;12.68;;
46036;SDS011;31769;49.304;8.428;2024-01-30T17:55:54;21.33;;;12.40;;